sensor_id;sensor_type;location;lat;lon;timestamp;temperature;humidity
75824;DHT22;64457;51.976;9.834;2023-12-28T00:00:11;11.20;92.10
75824;DHT22;64457;51.976;9.834;2023-12-28T00:02:47;11.20;91.90
75824;DHT22;64457;51.976;9.834;2023-12-28T00:05:19;11.20;91.80
75824;DHT22;64457;51.976;9.834;2023-12-28T00:07:51;11.30;91.50
75824;DHT22;64457;51.976;9.834;2023-12-28T00:10:30;11.50;92.00
75824;DHT22;64457;51.976;9.834;2023-12-28T00:13:03;11.50;91.70
75824;DHT22;64457;51.976;9.834;2023-12-28T00:15:41;11.60;91.50
75824;DHT22;64457;51.976;9.834;2023-12-28T00:18:11;11.60;91.30
75824;DHT22;64457;51.976;9.834;2023-12-28T00:20:38;11.70;91.40
75824;DHT22;64457;51.976;9.834;2023-12-28T00:23:09;11.60;90.90
75824;DHT22;64457;51.976;9.834;2023-12-28T00:25:37;11.50;91.30
75824;DHT22;64457;51.976;9.834;2023-12-28T00:28:05;11.50;91.10
75824;DHT22;64457;51.976;9.834;2023-12-28T00:30:33;11.60;91.50
75824;DHT22;64457;51.976;9.834;2023-12-28T00:33:01;11.50;90.80
75824;DHT22;64457;51.976;9.834;2023-12-28T00:35:30;11.50;91.40
75824;DHT22;64457;51.976;9.834;2023-12-28T00:37:58;11.60;91.30
75824;DHT22;64457;51.976;9.834;2023-12-28T00:40:26;11.80;91.50
75824;DHT22;64457;51.976;9.834;2023-12-28T00:42:56;11.80;90.90
75824;DHT22;64457;51.976;9.834;2023-12-28T00:45:24;11.50;91.20
75824;DHT22;64457;51.976;9.834;2023-12-28T00:47:52;11.50;91.70
75824;DHT22;64457;51.976;9.834;2023-12-28T00:50:22;11.70;91.50
75824;DHT22;64457;51.976;9.834;2023-12-28T00:52:54;11.80;91.10
75824;DHT22;64457;51.976;9.834;2023-12-28T00:55:24;11.80;90.90
75824;DHT22;64457;51.976;9.834;2023-12-28T00:57:51;11.80;91.30
75824;DHT22;64457;51.976;9.834;2023-12-28T01:00:19;11.80;91.10
75824;DHT22;64457;51.976;9.834;2023-12-28T01:02:47;11.90;91.60
75824;DHT22;64457;51.976;9.834;2023-12-28T01:05:15;11.90;91.60
75824;DHT22;64457;51.976;9.834;2023-12-28T01:07:44;11.90;91.90
75824;DHT22;64457;51.976;9.834;2023-12-28T01:10:15;11.90;91.70
75824;DHT22;64457;51.976;9.834;2023-12-28T01:12:46;11.80;92.30
75824;DHT22;64457;51.976;9.834;2023-12-28T01:15:14;11.90;92.60
75824;DHT22;64457;51.976;9.834;2023-12-28T01:17:49;11.90;92.70
75824;DHT22;64457;51.976;9.834;2023-12-28T01:20:17;11.90;92.40
75824;DHT22;64457;51.976;9.834;2023-12-28T01:22:45;12.00;92.40
75824;DHT22;64457;51.976;9.834;2023-12-28T01:25:14;12.10;92.60
75824;DHT22;64457;51.976;9.834;2023-12-28T01:27:42;12.20;92.80
75824;DHT22;64457;51.976;9.834;2023-12-28T01:30:13;12.20;92.90
75824;DHT22;64457;51.976;9.834;2023-12-28T01:32:41;12.20;93.00
75824;DHT22;64457;51.976;9.834;2023-12-28T01:35:08;12.30;92.90
75824;DHT22;64457;51.976;9.834;2023-12-28T01:37:36;12.20;93.40
75824;DHT22;64457;51.976;9.834;2023-12-28T01:40:04;12.10;93.60
75824;DHT22;64457;51.976;9.834;2023-12-28T01:42:36;12.00;94.10
75824;DHT22;64457;51.976;9.834;2023-12-28T01:45:05;12.00;94.10
75824;DHT22;64457;51.976;9.834;2023-12-28T01:47:35;11.90;94.50
75824;DHT22;64457;51.976;9.834;2023-12-28T01:50:03;11.90;94.80
75824;DHT22;64457;51.976;9.834;2023-12-28T01:52:33;11.90;95.10
75824;DHT22;64457;51.976;9.834;2023-12-28T01:55:02;11.90;95.20
75824;DHT22;64457;51.976;9.834;2023-12-28T01:57:36;11.90;95.30
75824;DHT22;64457;51.976;9.834;2023-12-28T02:00:12;11.90;95.60
75824;DHT22;64457;51.976;9.834;2023-12-28T02:02:40;11.80;95.80
75824;DHT22;64457;51.976;9.834;2023-12-28T02:05:09;11.70;96.20
75824;DHT22;64457;51.976;9.834;2023-12-28T02:07:39;11.60;97.00
75824;DHT22;64457;51.976;9.834;2023-12-28T02:10:07;11.50;97.40
75824;DHT22;64457;51.976;9.834;2023-12-28T02:12:36;11.40;97.60
75824;DHT22;64457;51.976;9.834;2023-12-28T02:15:09;11.60;97.40
75824;DHT22;64457;51.976;9.834;2023-12-28T02:17:46;11.90;96.90
75824;DHT22;64457;51.976;9.834;2023-12-28T02:20:21;12.00;96.50
75824;DHT22;64457;51.976;9.834;2023-12-28T02:22:48;12.10;96.40
75824;DHT22;64457;51.976;9.834;2023-12-28T02:25:18;12.10;96.40
75824;DHT22;64457;51.976;9.834;2023-12-28T02:27:47;12.00;96.60
75824;DHT22;64457;51.976;9.834;2023-12-28T02:30:21;12.10;96.70
75824;DHT22;64457;51.976;9.834;2023-12-28T02:33:00;11.90;97.10
75824;DHT22;64457;51.976;9.834;2023-12-28T02:35:36;11.80;97.30
75824;DHT22;64457;51.976;9.834;2023-12-28T02:38:10;11.80;97.60
75824;DHT22;64457;51.976;9.834;2023-12-28T02:40:42;11.70;98.10
75824;DHT22;64457;51.976;9.834;2023-12-28T02:43:12;11.70;98.20
75824;DHT22;64457;51.976;9.834;2023-12-28T02:45:45;11.70;98.00
75824;DHT22;64457;51.976;9.834;2023-12-28T02:48:13;11.70;98.00
75824;DHT22;64457;51.976;9.834;2023-12-28T02:50:41;11.70;98.00
75824;DHT22;64457;51.976;9.834;2023-12-28T02:53:09;11.50;98.30
75824;DHT22;64457;51.976;9.834;2023-12-28T02:55:36;11.30;98.80
75824;DHT22;64457;51.976;9.834;2023-12-28T02:58:05;11.40;98.70
75824;DHT22;64457;51.976;9.834;2023-12-28T03:00:36;11.60;98.40
75824;DHT22;64457;51.976;9.834;2023-12-28T03:03:06;11.80;98.10
75824;DHT22;64457;51.976;9.834;2023-12-28T03:05:34;11.80;98.10
75824;DHT22;64457;51.976;9.834;2023-12-28T03:08:06;11.80;97.80
75824;DHT22;64457;51.976;9.834;2023-12-28T03:10:36;11.70;97.90
75824;DHT22;64457;51.976;9.834;2023-12-28T03:13:05;11.90;98.00
75824;DHT22;64457;51.976;9.834;2023-12-28T03:15:36;11.80;98.10
75824;DHT22;64457;51.976;9.834;2023-12-28T03:18:06;11.80;98.50
75824;DHT22;64457;51.976;9.834;2023-12-28T03:20:36;11.90;98.40
75824;DHT22;64457;51.976;9.834;2023-12-28T03:23:04;11.80;98.30
75824;DHT22;64457;51.976;9.834;2023-12-28T03:25:32;11.60;98.70
75824;DHT22;64457;51.976;9.834;2023-12-28T03:28:00;11.50;98.80
75824;DHT22;64457;51.976;9.834;2023-12-28T03:30:29;11.30;99.30
75824;DHT22;64457;51.976;9.834;2023-12-28T03:32:57;11.40;99.00
75824;DHT22;64457;51.976;9.834;2023-12-28T03:35:25;11.40;99.00
75824;DHT22;64457;51.976;9.834;2023-12-28T03:37:54;11.40;99.50
75824;DHT22;64457;51.976;9.834;2023-12-28T03:40:21;11.50;98.80
75824;DHT22;64457;51.976;9.834;2023-12-28T03:42:49;11.30;99.00
75824;DHT22;64457;51.976;9.834;2023-12-28T03:45:17;11.30;99.10
75824;DHT22;64457;51.976;9.834;2023-12-28T03:47:46;11.40;99.00
75824;DHT22;64457;51.976;9.834;2023-12-28T03:50:13;11.40;99.20
75824;DHT22;64457;51.976;9.834;2023-12-28T03:52:41;11.50;99.10
75824;DHT22;64457;51.976;9.834;2023-12-28T03:55:09;11.60;99.20
75824;DHT22;64457;51.976;9.834;2023-12-28T03:57:37;11.50;99.00
75824;DHT22;64457;51.976;9.834;2023-12-28T04:00:06;11.40;99.30
75824;DHT22;64457;51.976;9.834;2023-12-28T04:02:35;11.50;99.50
75824;DHT22;64457;51.976;9.834;2023-12-28T04:05:05;11.60;99.40
75824;DHT22;64457;51.976;9.834;2023-12-28T04:07:35;11.70;99.00
75824;DHT22;64457;51.976;9.834;2023-12-28T04:10:03;11.50;99.50
75824;DHT22;64457;51.976;9.834;2023-12-28T04:12:32;11.40;99.60
75824;DHT22;64457;51.976;9.834;2023-12-28T04:15:01;11.50;99.60
75824;DHT22;64457;51.976;9.834;2023-12-28T04:17:30;11.60;99.80
75824;DHT22;64457;51.976;9.834;2023-12-28T04:19:59;11.60;99.50
75824;DHT22;64457;51.976;9.834;2023-12-28T04:22:29;11.70;99.50
75824;DHT22;64457;51.976;9.834;2023-12-28T04:24:57;11.70;99.40
75824;DHT22;64457;51.976;9.834;2023-12-28T04:27:25;11.40;99.60
75824;DHT22;64457;51.976;9.834;2023-12-28T04:29:53;11.50;99.90
75824;DHT22;64457;51.976;9.834;2023-12-28T04:32:21;11.30;99.90
75824;DHT22;64457;51.976;9.834;2023-12-28T04:34:49;11.40;99.90
75824;DHT22;64457;51.976;9.834;2023-12-28T04:37:17;11.30;99.90
75824;DHT22;64457;51.976;9.834;2023-12-28T04:39:46;11.20;99.90
75824;DHT22;64457;51.976;9.834;2023-12-28T04:42:14;11.40;99.90
75824;DHT22;64457;51.976;9.834;2023-12-28T04:44:41;11.50;99.90
75824;DHT22;64457;51.976;9.834;2023-12-28T04:47:09;11.50;99.90
75824;DHT22;64457;51.976;9.834;2023-12-28T04:49:36;11.40;99.90
75824;DHT22;64457;51.976;9.834;2023-12-28T04:52:04;11.60;99.90
75824;DHT22;64457;51.976;9.834;2023-12-28T04:54:32;11.50;99.90
75824;DHT22;64457;51.976;9.834;2023-12-28T04:57:01;11.50;99.90
75824;DHT22;64457;51.976;9.834;2023-12-28T04:59:29;11.50;99.90
75824;DHT22;64457;51.976;9.834;2023-12-28T05:01:57;11.50;99.90
75824;DHT22;64457;51.976;9.834;2023-12-28T05:04:24;11.40;99.90
75824;DHT22;64457;51.976;9.834;2023-12-28T05:06:53;11.30;99.90
75824;DHT22;64457;51.976;9.834;2023-12-28T05:09:21;11.30;99.90
75824;DHT22;64457;51.976;9.834;2023-12-28T05:11:49;11.50;99.90
75824;DHT22;64457;51.976;9.834;2023-12-28T05:14:20;11.50;99.90
75824;DHT22;64457;51.976;9.834;2023-12-28T05:16:47;11.60;99.90
75824;DHT22;64457;51.976;9.834;2023-12-28T05:19:15;11.30;99.90
75824;DHT22;64457;51.976;9.834;2023-12-28T05:21:44;11.40;99.90
75824;DHT22;64457;51.976;9.834;2023-12-28T05:24:12;11.40;99.90
75824;DHT22;64457;51.976;9.834;2023-12-28T05:26:40;11.50;99.90
75824;DHT22;64457;51.976;9.834;2023-12-28T05:29:08;11.70;99.80
75824;DHT22;64457;51.976;9.834;2023-12-28T05:31:37;11.60;99.50
75824;DHT22;64457;51.976;9.834;2023-12-28T05:34:05;11.60;99.70
75824;DHT22;64457;51.976;9.834;2023-12-28T05:36:33;11.60;99.60
75824;DHT22;64457;51.976;9.834;2023-12-28T05:39:01;11.30;99.70
75824;DHT22;64457;51.976;9.834;2023-12-28T05:41:30;11.30;99.90
75824;DHT22;64457;51.976;9.834;2023-12-28T05:43:57;11.50;99.70
75824;DHT22;64457;51.976;9.834;2023-12-28T05:46:24;11.70;99.40
75824;DHT22;64457;51.976;9.834;2023-12-28T05:48:53;11.60;99.50
75824;DHT22;64457;51.976;9.834;2023-12-28T05:51:21;11.70;99.30
75824;DHT22;64457;51.976;9.834;2023-12-28T05:53:48;11.70;99.20
75824;DHT22;64457;51.976;9.834;2023-12-28T05:56:17;11.70;99.30
75824;DHT22;64457;51.976;9.834;2023-12-28T05:58:44;11.70;99.30
75824;DHT22;64457;51.976;9.834;2023-12-28T06:01:12;11.70;99.30
75824;DHT22;64457;51.976;9.834;2023-12-28T06:03:40;11.70;99.30
75824;DHT22;64457;51.976;9.834;2023-12-28T06:06:10;11.60;99.30
75824;DHT22;64457;51.976;9.834;2023-12-28T06:08:37;11.50;99.30
75824;DHT22;64457;51.976;9.834;2023-12-28T06:11:07;11.50;99.70
75824;DHT22;64457;51.976;9.834;2023-12-28T06:13:35;11.60;99.50
75824;DHT22;64457;51.976;9.834;2023-12-28T06:16:03;11.50;99.50
75824;DHT22;64457;51.976;9.834;2023-12-28T06:18:31;11.50;99.60
75824;DHT22;64457;51.976;9.834;2023-12-28T06:21:00;11.60;99.50
75824;DHT22;64457;51.976;9.834;2023-12-28T06:23:32;11.60;99.30
75824;DHT22;64457;51.976;9.834;2023-12-28T06:26:04;11.70;99.40
75824;DHT22;64457;51.976;9.834;2023-12-28T06:28:32;11.60;99.30
75824;DHT22;64457;51.976;9.834;2023-12-28T06:31:01;11.50;99.30
75824;DHT22;64457;51.976;9.834;2023-12-28T06:33:30;11.50;99.20
75824;DHT22;64457;51.976;9.834;2023-12-28T06:35:58;11.40;99.50
75824;DHT22;64457;51.976;9.834;2023-12-28T06:38:33;11.40;99.50
75824;DHT22;64457;51.976;9.834;2023-12-28T06:41:00;11.40;99.30
75824;DHT22;64457;51.976;9.834;2023-12-28T06:43:28;11.50;99.20
75824;DHT22;64457;51.976;9.834;2023-12-28T06:45:56;11.60;99.10
75824;DHT22;64457;51.976;9.834;2023-12-28T06:48:24;11.60;98.90
75824;DHT22;64457;51.976;9.834;2023-12-28T06:50:52;11.50;99.00
75824;DHT22;64457;51.976;9.834;2023-12-28T06:53:20;11.50;98.90
75824;DHT22;64457;51.976;9.834;2023-12-28T06:55:51;11.30;98.90
75824;DHT22;64457;51.976;9.834;2023-12-28T06:58:18;11.40;99.00
75824;DHT22;64457;51.976;9.834;2023-12-28T07:00:46;11.50;98.90
75824;DHT22;64457;51.976;9.834;2023-12-28T07:03:13;11.50;98.90
75824;DHT22;64457;51.976;9.834;2023-12-28T07:05:42;11.50;99.20
75824;DHT22;64457;51.976;9.834;2023-12-28T07:08:10;11.50;98.80
75824;DHT22;64457;51.976;9.834;2023-12-28T07:10:37;11.50;98.70
75824;DHT22;64457;51.976;9.834;2023-12-28T07:13:07;11.60;98.30
75824;DHT22;64457;51.976;9.834;2023-12-28T07:15:35;11.80;98.50
75824;DHT22;64457;51.976;9.834;2023-12-28T07:18:04;12.00;98.20
75824;DHT22;64457;51.976;9.834;2023-12-28T07:20:32;11.80;97.90
75824;DHT22;64457;51.976;9.834;2023-12-28T07:23:01;11.70;98.10
75824;DHT22;64457;51.976;9.834;2023-12-28T07:25:28;11.80;98.20
75824;DHT22;64457;51.976;9.834;2023-12-28T07:27:56;11.90;98.00
75824;DHT22;64457;51.976;9.834;2023-12-28T07:30:25;12.00;97.70
75824;DHT22;64457;51.976;9.834;2023-12-28T07:32:54;11.90;97.80
75824;DHT22;64457;51.976;9.834;2023-12-28T07:35:23;11.90;97.90
75824;DHT22;64457;51.976;9.834;2023-12-28T07:37:50;12.00;97.80
75824;DHT22;64457;51.976;9.834;2023-12-28T07:40:21;12.10;97.80
75824;DHT22;64457;51.976;9.834;2023-12-28T07:42:50;12.00;97.50
75824;DHT22;64457;51.976;9.834;2023-12-28T07:45:17;12.00;97.70
75824;DHT22;64457;51.976;9.834;2023-12-28T07:47:51;11.80;97.70
75824;DHT22;64457;51.976;9.834;2023-12-28T07:50:21;11.60;98.00
75824;DHT22;64457;51.976;9.834;2023-12-28T07:52:48;11.50;98.50
75824;DHT22;64457;51.976;9.834;2023-12-28T07:55:16;11.50;98.50
75824;DHT22;64457;51.976;9.834;2023-12-28T07:57:43;11.60;98.70
75824;DHT22;64457;51.976;9.834;2023-12-28T08:00:14;11.70;98.30
75824;DHT22;64457;51.976;9.834;2023-12-28T08:02:41;12.00;98.10
75824;DHT22;64457;51.976;9.834;2023-12-28T08:05:11;12.20;97.70
75824;DHT22;64457;51.976;9.834;2023-12-28T08:07:39;12.10;97.70
75824;DHT22;64457;51.976;9.834;2023-12-28T08:10:07;11.90;98.00
75824;DHT22;64457;51.976;9.834;2023-12-28T08:12:37;11.90;97.90
75824;DHT22;64457;51.976;9.834;2023-12-28T08:15:06;12.10;97.80
75824;DHT22;64457;51.976;9.834;2023-12-28T08:17:34;12.00;97.60
75824;DHT22;64457;51.976;9.834;2023-12-28T08:20:02;12.10;97.70
75824;DHT22;64457;51.976;9.834;2023-12-28T08:22:32;12.20;97.70
75824;DHT22;64457;51.976;9.834;2023-12-28T08:25:00;12.30;97.20
75824;DHT22;64457;51.976;9.834;2023-12-28T08:27:27;11.90;97.80
75824;DHT22;64457;51.976;9.834;2023-12-28T08:29:55;11.90;98.00
75824;DHT22;64457;51.976;9.834;2023-12-28T08:32:23;11.90;97.90
75824;DHT22;64457;51.976;9.834;2023-12-28T08:34:50;11.90;97.70
75824;DHT22;64457;51.976;9.834;2023-12-28T08:37:18;11.90;97.80
75824;DHT22;64457;51.976;9.834;2023-12-28T08:39:47;11.80;97.70
75824;DHT22;64457;51.976;9.834;2023-12-28T08:42:14;11.90;97.90
75824;DHT22;64457;51.976;9.834;2023-12-28T08:44:42;11.90;97.90
75824;DHT22;64457;51.976;9.834;2023-12-28T08:47:10;12.00;97.80
75824;DHT22;64457;51.976;9.834;2023-12-28T08:49:40;12.10;97.70
75824;DHT22;64457;51.976;9.834;2023-12-28T08:52:10;12.30;97.50
75824;DHT22;64457;51.976;9.834;2023-12-28T08:54:38;12.10;97.60
75824;DHT22;64457;51.976;9.834;2023-12-28T08:57:11;12.00;97.60
75824;DHT22;64457;51.976;9.834;2023-12-28T08:59:39;12.10;97.50
75824;DHT22;64457;51.976;9.834;2023-12-28T09:02:06;12.00;97.70
75824;DHT22;64457;51.976;9.834;2023-12-28T09:04:35;12.20;97.60
75824;DHT22;64457;51.976;9.834;2023-12-28T09:07:05;12.20;97.40
75824;DHT22;64457;51.976;9.834;2023-12-28T09:09:32;12.20;97.20
75824;DHT22;64457;51.976;9.834;2023-12-28T09:12:00;12.10;97.10
75824;DHT22;64457;51.976;9.834;2023-12-28T09:14:29;12.20;97.70
75824;DHT22;64457;51.976;9.834;2023-12-28T09:16:56;12.10;97.50
75824;DHT22;64457;51.976;9.834;2023-12-28T09:19:24;12.20;97.40
75824;DHT22;64457;51.976;9.834;2023-12-28T09:21:52;12.30;97.40
75824;DHT22;64457;51.976;9.834;2023-12-28T09:24:20;12.40;97.30
75824;DHT22;64457;51.976;9.834;2023-12-28T09:26:48;12.40;97.30
75824;DHT22;64457;51.976;9.834;2023-12-28T09:29:15;12.40;97.10
75824;DHT22;64457;51.976;9.834;2023-12-28T09:31:45;12.40;97.10
75824;DHT22;64457;51.976;9.834;2023-12-28T09:34:13;12.40;97.10
75824;DHT22;64457;51.976;9.834;2023-12-28T09:36:41;12.10;97.20
75824;DHT22;64457;51.976;9.834;2023-12-28T09:39:09;12.00;97.70
75824;DHT22;64457;51.976;9.834;2023-12-28T09:41:39;12.10;97.20
75824;DHT22;64457;51.976;9.834;2023-12-28T09:44:12;12.20;97.50
75824;DHT22;64457;51.976;9.834;2023-12-28T09:46:42;12.30;97.00
75824;DHT22;64457;51.976;9.834;2023-12-28T09:49:13;12.40;96.90
75824;DHT22;64457;51.976;9.834;2023-12-28T09:51:41;12.40;97.00
75824;DHT22;64457;51.976;9.834;2023-12-28T09:54:09;12.30;96.90
75824;DHT22;64457;51.976;9.834;2023-12-28T09:56:36;12.20;96.80
75824;DHT22;64457;51.976;9.834;2023-12-28T09:59:06;12.50;96.90
75824;DHT22;64457;51.976;9.834;2023-12-28T10:01:46;12.40;96.90
75824;DHT22;64457;51.976;9.834;2023-12-28T10:04:17;12.40;96.70
75824;DHT22;64457;51.976;9.834;2023-12-28T10:06:45;12.60;96.70
75824;DHT22;64457;51.976;9.834;2023-12-28T10:09:13;12.50;96.70
75824;DHT22;64457;51.976;9.834;2023-12-28T10:11:43;12.60;96.80
75824;DHT22;64457;51.976;9.834;2023-12-28T10:14:11;12.40;96.40
75824;DHT22;64457;51.976;9.834;2023-12-28T10:16:41;12.60;96.60
75824;DHT22;64457;51.976;9.834;2023-12-28T10:19:08;12.80;96.60
75824;DHT22;64457;51.976;9.834;2023-12-28T10:21:39;12.90;96.10
75824;DHT22;64457;51.976;9.834;2023-12-28T10:24:08;12.90;95.90
75824;DHT22;64457;51.976;9.834;2023-12-28T10:26:37;13.10;95.80
75824;DHT22;64457;51.976;9.834;2023-12-28T10:29:04;13.20;95.70
75824;DHT22;64457;51.976;9.834;2023-12-28T10:31:32;13.10;95.60
75824;DHT22;64457;51.976;9.834;2023-12-28T10:34:00;12.90;95.30
75824;DHT22;64457;51.976;9.834;2023-12-28T10:36:28;12.80;95.60
75824;DHT22;64457;51.976;9.834;2023-12-28T10:39:00;12.80;95.80
75824;DHT22;64457;51.976;9.834;2023-12-28T10:41:31;13.10;95.80
75824;DHT22;64457;51.976;9.834;2023-12-28T10:44:03;13.00;95.40
75824;DHT22;64457;51.976;9.834;2023-12-28T10:46:36;13.00;95.30
75824;DHT22;64457;51.976;9.834;2023-12-28T10:49:11;13.00;95.30
75824;DHT22;64457;51.976;9.834;2023-12-28T10:51:41;12.90;95.30
75824;DHT22;64457;51.976;9.834;2023-12-28T10:54:23;13.00;95.30
75824;DHT22;64457;51.976;9.834;2023-12-28T10:57:04;13.20;95.10
75824;DHT22;64457;51.976;9.834;2023-12-28T10:59:44;13.30;94.80
75824;DHT22;64457;51.976;9.834;2023-12-28T11:02:21;13.20;94.70
75824;DHT22;64457;51.976;9.834;2023-12-28T11:04:54;13.30;94.60
75824;DHT22;64457;51.976;9.834;2023-12-28T11:07:23;13.30;94.60
75824;DHT22;64457;51.976;9.834;2023-12-28T11:10:00;13.40;94.40
75824;DHT22;64457;51.976;9.834;2023-12-28T11:12:31;13.60;94.30
75824;DHT22;64457;51.976;9.834;2023-12-28T11:15:00;13.50;94.40
75824;DHT22;64457;51.976;9.834;2023-12-28T11:17:31;13.60;94.10
75824;DHT22;64457;51.976;9.834;2023-12-28T11:19:59;13.60;93.90
75824;DHT22;64457;51.976;9.834;2023-12-28T11:22:28;13.60;93.60
75824;DHT22;64457;51.976;9.834;2023-12-28T11:24:56;13.50;94.10
75824;DHT22;64457;51.976;9.834;2023-12-28T11:27:33;13.70;93.40
75824;DHT22;64457;51.976;9.834;2023-12-28T11:30:05;13.90;93.50
75824;DHT22;64457;51.976;9.834;2023-12-28T11:32:35;13.70;93.40
75824;DHT22;64457;51.976;9.834;2023-12-28T11:35:07;14.00;93.70
75824;DHT22;64457;51.976;9.834;2023-12-28T11:37:38;13.90;93.40
75824;DHT22;64457;51.976;9.834;2023-12-28T11:40:12;14.10;93.40
75824;DHT22;64457;51.976;9.834;2023-12-28T11:42:50;14.20;93.10
75824;DHT22;64457;51.976;9.834;2023-12-28T11:45:19;14.10;93.20
75824;DHT22;64457;51.976;9.834;2023-12-28T11:47:58;14.30;93.00
75824;DHT22;64457;51.976;9.834;2023-12-28T11:50:26;14.70;92.00
75824;DHT22;64457;51.976;9.834;2023-12-28T11:52:54;14.70;91.70
75824;DHT22;64457;51.976;9.834;2023-12-28T11:55:23;14.60;91.40
75824;DHT22;64457;51.976;9.834;2023-12-28T11:57:53;14.60;92.20
75824;DHT22;64457;51.976;9.834;2023-12-28T12:00:20;14.60;92.10
75824;DHT22;64457;51.976;9.834;2023-12-28T12:02:51;14.60;92.30
75824;DHT22;64457;51.976;9.834;2023-12-28T12:05:18;14.50;92.00
75824;DHT22;64457;51.976;9.834;2023-12-28T12:07:46;14.50;92.30
75824;DHT22;64457;51.976;9.834;2023-12-28T12:10:16;14.50;91.60
75824;DHT22;64457;51.976;9.834;2023-12-28T12:12:45;14.30;91.80
75824;DHT22;64457;51.976;9.834;2023-12-28T12:15:16;14.40;91.50
75824;DHT22;64457;51.976;9.834;2023-12-28T12:17:45;14.30;92.10
75824;DHT22;64457;51.976;9.834;2023-12-28T12:20:14;14.30;92.20
75824;DHT22;64457;51.976;9.834;2023-12-28T12:22:42;14.40;92.20
75824;DHT22;64457;51.976;9.834;2023-12-28T12:25:11;14.50;91.40
75824;DHT22;64457;51.976;9.834;2023-12-28T12:27:39;14.50;91.70
75824;DHT22;64457;51.976;9.834;2023-12-28T12:30:07;14.90;91.60
75824;DHT22;64457;51.976;9.834;2023-12-28T12:32:37;14.80;91.30
75824;DHT22;64457;51.976;9.834;2023-12-28T12:35:09;15.00;91.20
75824;DHT22;64457;51.976;9.834;2023-12-28T12:37:37;14.80;91.10
75824;DHT22;64457;51.976;9.834;2023-12-28T12:40:05;14.40;91.20
75824;DHT22;64457;51.976;9.834;2023-12-28T12:42:34;14.40;91.70
75824;DHT22;64457;51.976;9.834;2023-12-28T12:45:02;14.60;91.10
75824;DHT22;64457;51.976;9.834;2023-12-28T12:47:33;14.40;91.30
75824;DHT22;64457;51.976;9.834;2023-12-28T12:50:02;14.40;91.10
75824;DHT22;64457;51.976;9.834;2023-12-28T12:52:31;14.30;91.50
75824;DHT22;64457;51.976;9.834;2023-12-28T12:54:59;14.30;91.60
75824;DHT22;64457;51.976;9.834;2023-12-28T12:57:27;14.40;91.80
75824;DHT22;64457;51.976;9.834;2023-12-28T12:59:54;14.50;91.60
75824;DHT22;64457;51.976;9.834;2023-12-28T13:02:23;14.50;90.50
75824;DHT22;64457;51.976;9.834;2023-12-28T13:04:51;14.50;91.10
75824;DHT22;64457;51.976;9.834;2023-12-28T13:07:21;14.50;91.20
75824;DHT22;64457;51.976;9.834;2023-12-28T13:09:49;14.50;90.90
75824;DHT22;64457;51.976;9.834;2023-12-28T13:12:16;14.50;91.10
75824;DHT22;64457;51.976;9.834;2023-12-28T13:14:44;14.50;90.90
75824;DHT22;64457;51.976;9.834;2023-12-28T13:17:12;14.60;91.20
75824;DHT22;64457;51.976;9.834;2023-12-28T13:19:39;14.60;90.60
75824;DHT22;64457;51.976;9.834;2023-12-28T13:22:09;14.20;91.10
75824;DHT22;64457;51.976;9.834;2023-12-28T13:24:38;14.00;91.50
75824;DHT22;64457;51.976;9.834;2023-12-28T13:27:06;14.20;91.50
75824;DHT22;64457;51.976;9.834;2023-12-28T13:29:34;14.00;91.20
75824;DHT22;64457;51.976;9.834;2023-12-28T13:32:01;13.90;91.20
75824;DHT22;64457;51.976;9.834;2023-12-28T13:34:29;13.70;91.40
75824;DHT22;64457;51.976;9.834;2023-12-28T13:36:57;13.70;91.70
75824;DHT22;64457;51.976;9.834;2023-12-28T13:39:25;13.80;91.40
75824;DHT22;64457;51.976;9.834;2023-12-28T13:41:55;13.70;91.20
75824;DHT22;64457;51.976;9.834;2023-12-28T13:44:23;13.60;91.60
75824;DHT22;64457;51.976;9.834;2023-12-28T13:46:50;13.80;91.70
75824;DHT22;64457;51.976;9.834;2023-12-28T13:49:19;13.80;91.40
75824;DHT22;64457;51.976;9.834;2023-12-28T13:51:47;13.70;91.40
75824;DHT22;64457;51.976;9.834;2023-12-28T13:54:15;13.80;90.80
75824;DHT22;64457;51.976;9.834;2023-12-28T13:56:45;13.60;91.40
75824;DHT22;64457;51.976;9.834;2023-12-28T13:59:16;13.40;91.30
75824;DHT22;64457;51.976;9.834;2023-12-28T14:01:43;13.60;91.50
75824;DHT22;64457;51.976;9.834;2023-12-28T14:04:12;13.70;91.30
75824;DHT22;64457;51.976;9.834;2023-12-28T14:06:39;13.80;91.10
75824;DHT22;64457;51.976;9.834;2023-12-28T14:09:06;13.80;91.30
75824;DHT22;64457;51.976;9.834;2023-12-28T14:11:34;13.80;91.00
75824;DHT22;64457;51.976;9.834;2023-12-28T14:14:01;14.00;91.30
75824;DHT22;64457;51.976;9.834;2023-12-28T14:16:31;14.10;90.50
75824;DHT22;64457;51.976;9.834;2023-12-28T14:18:59;14.20;90.90
75824;DHT22;64457;51.976;9.834;2023-12-28T14:21:27;14.20;90.30
75824;DHT22;64457;51.976;9.834;2023-12-28T14:23:56;13.90;90.50
75824;DHT22;64457;51.976;9.834;2023-12-28T14:26:24;13.80;91.10
75824;DHT22;64457;51.976;9.834;2023-12-28T14:28:53;13.60;90.90
75824;DHT22;64457;51.976;9.834;2023-12-28T14:31:21;13.60;91.40
75824;DHT22;64457;51.976;9.834;2023-12-28T14:33:54;13.70;91.10
75824;DHT22;64457;51.976;9.834;2023-12-28T14:36:29;13.70;91.20
75824;DHT22;64457;51.976;9.834;2023-12-28T14:38:59;13.90;90.70
75824;DHT22;64457;51.976;9.834;2023-12-28T14:41:27;14.00;90.10
75824;DHT22;64457;51.976;9.834;2023-12-28T14:43:55;13.80;90.80
75824;DHT22;64457;51.976;9.834;2023-12-28T14:46:23;13.90;91.00
75824;DHT22;64457;51.976;9.834;2023-12-28T14:48:53;13.90;90.80
75824;DHT22;64457;51.976;9.834;2023-12-28T14:51:20;14.00;90.90
75824;DHT22;64457;51.976;9.834;2023-12-28T14:53:49;14.20;91.10
75824;DHT22;64457;51.976;9.834;2023-12-28T14:56:17;14.40;91.10
75824;DHT22;64457;51.976;9.834;2023-12-28T14:58:45;14.30;90.50
75824;DHT22;64457;51.976;9.834;2023-12-28T15:01:14;14.00;90.80
75824;DHT22;64457;51.976;9.834;2023-12-28T15:03:42;13.90;91.30
75824;DHT22;64457;51.976;9.834;2023-12-28T15:06:11;14.00;91.40
75824;DHT22;64457;51.976;9.834;2023-12-28T15:08:40;14.10;91.30
75824;DHT22;64457;51.976;9.834;2023-12-28T15:11:09;14.30;91.40
75824;DHT22;64457;51.976;9.834;2023-12-28T15:13:37;14.20;91.10
75824;DHT22;64457;51.976;9.834;2023-12-28T15:16:04;14.40;90.80
75824;DHT22;64457;51.976;9.834;2023-12-28T15:18:36;14.40;91.20
75824;DHT22;64457;51.976;9.834;2023-12-28T15:21:06;14.30;91.10
75824;DHT22;64457;51.976;9.834;2023-12-28T15:23:38;14.20;91.30
75824;DHT22;64457;51.976;9.834;2023-12-28T15:26:06;14.30;91.40
75824;DHT22;64457;51.976;9.834;2023-12-28T15:28:33;14.30;91.20
75824;DHT22;64457;51.976;9.834;2023-12-28T15:31:01;14.30;91.40
75824;DHT22;64457;51.976;9.834;2023-12-28T15:33:29;14.30;91.20
75824;DHT22;64457;51.976;9.834;2023-12-28T15:35:56;14.30;91.50
75824;DHT22;64457;51.976;9.834;2023-12-28T15:38:24;14.00;90.90
75824;DHT22;64457;51.976;9.834;2023-12-28T15:40:53;14.10;91.70